createdAt,value
2022-11-08T00:02:14.094Z,98.10
2022-11-08T00:04:40.913Z,97.50
2022-11-08T00:07:26.437Z,97.90
2022-11-08T00:10:11.981Z,97.90
2022-11-08T00:12:57.144Z,98.20
2022-11-08T00:15:24.043Z,98.20
2022-11-08T00:17:50.734Z,98.30
2022-11-08T00:20:17.529Z,98.40
2022-11-08T00:22:44.199Z,98.30
2022-11-08T00:25:11.219Z,98.30
2022-11-08T00:27:37.957Z,98.20
2022-11-08T00:30:05.087Z,98.10
2022-11-08T00:32:31.781Z,98.00
2022-11-08T00:34:58.522Z,98.20
2022-11-08T00:37:26.481Z,98.00
2022-11-08T00:39:53.217Z,98.10
2022-11-08T00:42:19.902Z,98.00
2022-11-08T00:44:46.623Z,97.90
2022-11-08T00:47:13.252Z,97.80
2022-11-08T00:49:39.875Z,97.70
2022-11-08T00:52:06.542Z,97.60
2022-11-08T00:54:33.188Z,97.40
2022-11-08T00:56:59.963Z,97.30
2022-11-08T00:59:26.602Z,97.10
2022-11-08T01:01:53.355Z,97.00
2022-11-08T01:04:20.683Z,96.90
2022-11-08T01:06:47.832Z,96.50
2022-11-08T01:09:15.727Z,96.20
2022-11-08T01:11:46.408Z,96.00
2022-11-08T01:14:14.629Z,95.70
2022-11-08T01:16:42.122Z,95.50
2022-11-08T01:19:08.897Z,95.10
2022-11-08T01:21:35.680Z,94.90
2022-11-08T01:24:02.403Z,94.50
2022-11-08T01:26:29.980Z,94.40
2022-11-08T01:28:58.197Z,94.30
2022-11-08T01:31:30.802Z,93.90
2022-11-08T01:33:59.019Z,94.40
2022-11-08T01:36:28.012Z,94.50
2022-11-08T01:38:55.852Z,95.10
2022-11-08T01:41:24.977Z,95.00
2022-11-08T01:43:53.696Z,95.00
2022-11-08T01:46:31.097Z,95.00
2022-11-08T01:49:23.271Z,95.80
2022-11-08T01:52:27.561Z,96.60
2022-11-08T01:55:01.152Z,96.80
2022-11-08T01:58:02.004Z,96.90
2022-11-08T02:00:28.882Z,96.80
2022-11-08T02:03:01.357Z,96.80
2022-11-08T02:05:29.517Z,97.00
2022-11-08T02:08:02.034Z,97.00
2022-11-08T02:10:38.056Z,97.10
2022-11-08T02:13:14.302Z,97.10
2022-11-08T02:15:41.743Z,97.40
2022-11-08T02:18:08.693Z,97.40
2022-11-08T02:20:35.570Z,97.70
2022-11-08T02:23:17.392Z,97.70
2022-11-08T02:25:44.091Z,97.70
2022-11-08T02:28:10.858Z,98.00
2022-11-08T02:30:38.804Z,98.60
2022-11-08T02:33:19.525Z,98.80
2022-11-08T02:35:50.978Z,99.50
2022-11-08T02:38:19.031Z,98.70
2022-11-08T02:40:51.023Z,98.50
2022-11-08T02:43:18.087Z,98.20
2022-11-08T02:45:45.248Z,98.90
2022-11-08T02:48:12.816Z,99.10
2022-11-08T02:50:40.134Z,99.20
2022-11-08T02:53:07.324Z,98.80
2022-11-08T02:55:35.061Z,99.20
2022-11-08T02:58:03.011Z,99.10
2022-11-08T03:00:29.726Z,99.10
2022-11-08T03:02:57.550Z,98.80
2022-11-08T03:05:25.659Z,98.80
2022-11-08T03:07:53.473Z,98.70
2022-11-08T03:10:20.535Z,98.60
2022-11-08T03:12:47.201Z,98.40
2022-11-08T03:15:14.475Z,98.40
2022-11-08T03:17:41.133Z,98.70
2022-11-08T03:20:08.250Z,98.90
2022-11-08T03:22:34.928Z,99.30
2022-11-08T03:25:01.554Z,99.40
2022-11-08T03:27:28.713Z,99.60
2022-11-08T03:29:55.395Z,99.70
2022-11-08T03:32:22.726Z,99.90
2022-11-08T03:34:49.423Z,99.80
2022-11-08T03:37:16.106Z,99.50
2022-11-08T03:39:42.817Z,99.40
2022-11-08T03:42:09.489Z,99.20
2022-11-08T03:44:36.150Z,99.00
2022-11-08T03:47:02.836Z,98.80
2022-11-08T03:49:29.520Z,99.40
2022-11-08T03:51:56.231Z,97.90
2022-11-08T03:54:22.932Z,97.70
2022-11-08T03:56:49.940Z,97.50
2022-11-08T03:59:16.607Z,97.40
2022-11-08T04:01:43.596Z,97.30
2022-11-08T04:04:13.320Z,97.20
2022-11-08T04:06:40.075Z,97.10
2022-11-08T04:09:06.746Z,96.90
2022-11-08T04:11:52.041Z,96.80
2022-11-08T04:14:37.505Z,96.70
2022-11-08T04:17:04.217Z,96.50
2022-11-08T04:19:49.314Z,96.20
2022-11-08T04:22:15.969Z,95.80
2022-11-08T04:24:42.634Z,95.40
2022-11-08T04:27:09.403Z,95.20
2022-11-08T04:29:36.093Z,95.10
2022-11-08T04:32:02.842Z,95.10
2022-11-08T04:34:30.068Z,94.90
2022-11-08T04:36:56.701Z,95.10
2022-11-08T04:39:23.338Z,95.30
2022-11-08T04:41:49.994Z,95.10
2022-11-08T04:44:18.347Z,95.50
2022-11-08T04:46:45.002Z,95.90
2022-11-08T04:49:11.723Z,95.90
2022-11-08T04:51:38.460Z,95.90
2022-11-08T04:54:07.650Z,96.50
2022-11-08T04:56:34.368Z,96.50
2022-11-08T04:59:01.261Z,96.40
2022-11-08T05:01:30.930Z,96.30
2022-11-08T05:03:58.248Z,96.50
2022-11-08T05:06:28.408Z,96.80
2022-11-08T05:08:56.421Z,96.70
2022-11-08T05:11:25.547Z,96.60
2022-11-08T05:13:52.798Z,96.50
2022-11-08T05:16:22.317Z,96.60
2022-11-08T05:18:49.523Z,96.60
2022-11-08T05:21:37.998Z,96.60
2022-11-08T05:24:06.822Z,96.80
2022-11-08T05:26:35.237Z,97.00
2022-11-08T05:29:02.357Z,97.30
2022-11-08T05:31:29.012Z,97.20
2022-11-08T05:33:55.752Z,97.60
2022-11-08T05:36:22.449Z,97.80
2022-11-08T05:38:49.175Z,98.30
2022-11-08T05:41:19.218Z,98.60
2022-11-08T05:43:47.694Z,98.80
2022-11-08T05:46:15.174Z,99.20
2022-11-08T05:48:43.049Z,99.40
2022-11-08T05:51:12.067Z,99.50
2022-11-08T05:53:40.140Z,99.90
2022-11-08T05:56:07.753Z,99.90
2022-11-08T05:58:35.443Z,99.90
2022-11-08T06:01:16.244Z,99.90
2022-11-08T06:03:43.351Z,99.90
2022-11-08T06:06:14.942Z,99.90
2022-11-08T06:08:44.975Z,99.90
2022-11-08T06:11:16.873Z,99.90
2022-11-08T06:13:43.617Z,99.90
2022-11-08T06:16:13.539Z,99.90
2022-11-08T06:18:41.415Z,99.90
2022-11-08T06:21:12.198Z,99.90
2022-11-08T06:23:39.252Z,99.90
2022-11-08T06:26:05.966Z,99.90
2022-11-08T06:28:33.299Z,99.90
2022-11-08T06:31:01.401Z,99.90
2022-11-08T06:33:28.904Z,99.90
2022-11-08T06:35:55.619Z,99.90
2022-11-08T06:38:22.525Z,99.90
2022-11-08T06:40:49.212Z,99.90
2022-11-08T06:43:19.588Z,99.90
2022-11-08T06:45:46.996Z,99.90
2022-11-08T06:48:13.729Z,99.90
2022-11-08T06:50:42.570Z,99.90
2022-11-08T06:53:12.464Z,99.90
2022-11-08T06:55:39.171Z,99.90
2022-11-08T06:58:05.993Z,99.90
2022-11-08T07:00:32.817Z,99.90
2022-11-08T07:03:02.367Z,99.90
2022-11-08T07:05:31.350Z,99.90
2022-11-08T07:07:59.326Z,99.90
2022-11-08T07:10:28.142Z,99.90
2022-11-08T07:13:03.467Z,99.90
2022-11-08T07:15:31.278Z,99.90
2022-11-08T07:18:11.636Z,99.90
2022-11-08T07:20:39.414Z,99.90
2022-11-08T07:23:06.649Z,99.90
2022-11-08T07:25:34.127Z,99.90
2022-11-08T07:28:03.657Z,99.90
2022-11-08T07:30:31.074Z,99.90
2022-11-08T07:32:58.295Z,99.90
2022-11-08T07:35:27.605Z,99.90
2022-11-08T07:37:54.835Z,99.90
2022-11-08T07:40:21.486Z,99.90
2022-11-08T07:45:35.424Z,99.90
2022-11-08T07:48:09.554Z,99.90
2022-11-08T07:50:38.458Z,99.90
2022-11-08T07:53:05.127Z,99.90
2022-11-08T07:55:31.871Z,99.90
2022-11-08T07:58:02.521Z,99.90
2022-11-08T08:00:36.193Z,99.90
2022-11-08T08:03:04.040Z,99.70
2022-11-08T08:05:35.157Z,99.60
2022-11-08T08:08:02.458Z,99.60
2022-11-08T08:10:29.868Z,99.60
2022-11-08T08:12:57.179Z,99.70
2022-11-08T08:15:24.461Z,99.90
2022-11-08T08:17:51.141Z,98.80
2022-11-08T08:20:18.030Z,97.80
2022-11-08T08:22:46.300Z,96.70
2022-11-08T08:25:13.758Z,94.50
2022-11-08T08:27:40.578Z,92.40
2022-11-08T08:30:07.832Z,92.30
2022-11-08T08:32:34.696Z,92.20
2022-11-08T08:35:01.368Z,90.10
2022-11-08T08:37:28.306Z,87.80
2022-11-08T08:39:54.937Z,87.80
2022-11-08T08:42:21.570Z,87.80
2022-11-08T08:44:48.311Z,87.30
2022-11-08T08:47:14.962Z,87.40
2022-11-08T08:49:41.591Z,86.20
2022-11-08T08:52:08.389Z,85.80
2022-11-08T08:54:35.005Z,85.70
2022-11-08T08:57:01.702Z,84.40
2022-11-08T09:02:16.986Z,82.20
2022-11-08T09:04:43.609Z,80.30
2022-11-08T09:07:10.284Z,77.50
2022-11-08T09:09:37.495Z,76.00
2022-11-08T09:12:04.356Z,75.20
2022-11-08T09:14:30.996Z,73.20
2022-11-08T09:16:58.011Z,70.40
2022-11-08T09:19:24.690Z,66.50
2022-11-08T09:21:51.430Z,60.60
2022-11-08T09:24:18.275Z,63.10
2022-11-08T09:26:45.054Z,56.80
2022-11-08T09:29:11.718Z,56.70
2022-11-08T09:31:38.410Z,53.20
2022-11-08T09:34:05.076Z,52.50
2022-11-08T09:36:32.657Z,53.00
2022-11-08T09:38:59.331Z,53.80
2022-11-08T09:41:28.786Z,54.50
2022-11-08T09:44:30.519Z,55.60
2022-11-08T09:47:02.468Z,54.00
2022-11-08T09:49:37.791Z,56.40
2022-11-08T09:52:05.734Z,54.50
2022-11-08T09:54:41.807Z,55.50
2022-11-08T09:57:20.575Z,56.00
2022-11-08T09:59:52.681Z,57.30
2022-11-08T10:02:22.729Z,53.60
2022-11-08T10:04:55.179Z,54.80
2022-11-08T10:07:48.258Z,54.40
2022-11-08T10:10:36.011Z,52.70
2022-11-08T10:13:18.072Z,52.10
2022-11-08T10:16:26.195Z,52.20
2022-11-08T10:19:08.884Z,52.20
2022-11-08T10:21:47.426Z,52.90
2022-11-08T10:24:26.658Z,51.20
2022-11-08T10:26:57.541Z,51.40
2022-11-08T10:29:31.355Z,51.30
2022-11-08T10:32:20.316Z,49.90
2022-11-08T10:35:05.968Z,50.80
2022-11-08T10:37:33.536Z,50.00
2022-11-08T10:40:06.230Z,48.50
2022-11-08T10:42:43.979Z,47.90
2022-11-08T10:45:13.382Z,48.20
2022-11-08T10:47:41.118Z,47.60
2022-11-08T10:50:22.288Z,47.70
2022-11-08T10:53:00.098Z,46.30
2022-11-08T10:55:27.940Z,48.10
2022-11-08T10:57:54.840Z,48.00
2022-11-08T11:00:21.912Z,46.40
2022-11-08T11:02:57.545Z,47.50
2022-11-08T11:05:36.891Z,44.70
2022-11-08T11:08:15.621Z,44.40
2022-11-08T11:10:47.705Z,43.90
2022-11-08T11:16:03.258Z,44.10
2022-11-08T11:18:38.929Z,45.50
2022-11-08T11:21:14.040Z,42.10
2022-11-08T11:23:42.603Z,40.40
2022-11-08T11:26:32.918Z,42.60
2022-11-08T11:29:02.631Z,41.00
2022-11-08T11:31:29.698Z,41.60
2022-11-08T11:33:56.859Z,42.60
2022-11-08T11:36:27.477Z,40.70
2022-11-08T11:39:22.276Z,38.90
2022-11-08T11:42:45.329Z,40.40
2022-11-08T11:45:36.356Z,38.20
2022-11-08T11:48:11.555Z,38.80
2022-11-08T11:50:40.675Z,37.40
2022-11-08T11:53:38.821Z,37.80
2022-11-08T11:56:26.334Z,38.70
2022-11-08T11:59:37.396Z,39.20
2022-11-08T12:02:45.593Z,36.40
2022-11-08T12:05:39.438Z,35.70
2022-11-08T12:08:23.833Z,36.70
2022-11-08T12:11:03.838Z,36.60
2022-11-08T12:13:42.370Z,36.50
2022-11-08T12:16:18.133Z,36.10
2022-11-08T12:18:48.083Z,34.30
2022-11-08T12:21:56.196Z,33.20
2022-11-08T12:24:46.050Z,33.30
2022-11-08T12:27:12.683Z,34.30
2022-11-08T12:30:08.746Z,33.80
2022-11-08T12:32:48.027Z,35.10
2022-11-08T12:35:19.724Z,33.90
2022-11-08T12:38:19.392Z,35.80
2022-11-08T12:41:03.721Z,34.40
2022-11-08T12:43:42.230Z,34.80
2022-11-08T12:46:13.219Z,33.40
2022-11-08T12:49:02.324Z,34.30
2022-11-08T12:51:42.758Z,32.70
2022-11-08T12:54:24.406Z,32.90
2022-11-08T12:56:54.786Z,33.10
2022-11-08T12:59:37.096Z,32.20
2022-11-08T13:02:05.857Z,33.40
2022-11-08T13:04:38.646Z,32.10
2022-11-08T13:07:20.589Z,33.00
2022-11-08T13:09:57.216Z,33.80
2022-11-08T13:13:07.399Z,33.00
2022-11-08T13:15:34.073Z,34.00
2022-11-08T13:18:06.239Z,33.40
2022-11-08T13:20:44.957Z,34.30
2022-11-08T13:23:25.242Z,34.50
2022-11-08T13:25:52.811Z,35.20
2022-11-08T13:28:38.658Z,35.00
2022-11-08T13:31:27.760Z,34.90
2022-11-08T13:34:22.479Z,35.90
2022-11-08T13:37:13.896Z,36.40
2022-11-08T13:39:47.782Z,36.30
2022-11-08T13:42:17.394Z,36.00
2022-11-08T13:44:56.358Z,35.90
2022-11-08T13:47:34.890Z,36.80
2022-11-08T13:50:20.283Z,37.30
2022-11-08T13:53:08.306Z,37.60
2022-11-08T13:55:44.503Z,37.40
2022-11-08T13:58:38.975Z,37.30
2022-11-08T14:01:11.527Z,38.00
2022-11-08T14:03:47.622Z,39.10
2022-11-08T14:06:35.741Z,38.40
2022-11-08T14:09:35.636Z,37.70
2022-11-08T14:12:26.186Z,38.00
2022-11-08T14:15:07.528Z,37.70
2022-11-08T14:17:47.922Z,38.80
2022-11-08T14:20:27.504Z,39.40
2022-11-08T14:22:54.724Z,40.20
2022-11-08T14:25:34.937Z,41.20
2022-11-08T14:28:02.050Z,40.90
2022-11-08T14:30:28.772Z,41.80
2022-11-08T14:33:16.955Z,42.60
2022-11-08T14:35:51.834Z,41.80
2022-11-08T14:38:18.637Z,42.30
2022-11-08T14:40:54.781Z,42.50
2022-11-08T14:43:22.784Z,42.70
2022-11-08T14:45:50.490Z,43.20
2022-11-08T14:48:28.949Z,43.30
2022-11-08T14:51:00.324Z,43.00
2022-11-08T14:53:31.847Z,44.00
2022-11-08T14:56:19.884Z,44.40
2022-11-08T14:58:48.171Z,44.50
2022-11-08T15:01:16.970Z,44.80
2022-11-08T15:04:17.074Z,45.60
2022-11-08T15:06:48.532Z,45.10
2022-11-08T15:09:26.543Z,45.20
2022-11-08T15:11:57.139Z,45.40
2022-11-08T15:14:26.986Z,45.90
2022-11-08T15:16:58.663Z,46.50
2022-11-08T15:19:37.870Z,46.60
2022-11-08T15:22:24.785Z,47.10
2022-11-08T15:25:22.016Z,47.20
2022-11-08T15:27:57.167Z,47.30
2022-11-08T15:30:29.722Z,47.20
2022-11-08T15:32:57.046Z,47.40
2022-11-08T15:35:36.675Z,47.60
2022-11-08T15:38:25.392Z,47.40
2022-11-08T15:40:54.778Z,47.10
2022-11-08T15:43:36.065Z,47.30
2022-11-08T15:46:04.595Z,47.70
2022-11-08T15:48:32.051Z,47.80
2022-11-08T15:50:59.211Z,47.60
2022-11-08T15:53:27.345Z,47.70
2022-11-08T15:55:58.558Z,48.20
2022-11-08T15:58:31.296Z,48.20
2022-11-08T16:00:59.850Z,48.60
2022-11-08T16:03:26.653Z,48.30
2022-11-08T16:05:53.606Z,48.40
2022-11-08T16:08:21.164Z,48.60
2022-11-08T16:10:53.609Z,48.90
2022-11-08T16:13:31.187Z,48.50
2022-11-08T16:15:59.390Z,48.70
2022-11-08T16:18:27.129Z,48.80
2022-11-08T16:20:53.879Z,48.80
2022-11-08T16:23:20.573Z,49.40
2022-11-08T16:25:52.592Z,48.50
2022-11-08T16:28:34.355Z,48.60
2022-11-08T16:31:11.553Z,49.00
2022-11-08T16:33:38.542Z,49.00
2022-11-08T16:36:21.770Z,49.20
2022-11-08T16:38:53.506Z,48.90
2022-11-08T16:41:21.170Z,49.10
2022-11-08T16:43:47.997Z,48.70
2022-11-08T16:46:15.288Z,48.70
2022-11-08T16:48:48.048Z,49.20
2022-11-08T16:51:20.143Z,49.50
2022-11-08T16:53:47.982Z,49.50
2022-11-08T16:56:15.078Z,50.10
2022-11-08T16:58:42.530Z,50.20
2022-11-08T17:01:15.968Z,50.10
2022-11-08T17:03:42.851Z,50.20
2022-11-08T17:06:15.703Z,50.50
2022-11-08T17:08:42.561Z,50.80
2022-11-08T17:11:15.036Z,50.80
2022-11-08T17:13:41.679Z,50.40
2022-11-08T17:16:11.757Z,50.60
2022-11-08T17:18:38.723Z,50.50
2022-11-08T17:21:44.225Z,50.80
2022-11-08T17:24:01.914Z,51.40
2022-11-08T17:26:28.559Z,51.50
2022-11-08T17:28:56.317Z,51.30
2022-11-08T17:31:22.930Z,51.70
2022-11-08T17:33:49.663Z,51.90
2022-11-08T17:36:16.428Z,51.50
2022-11-08T17:38:43.240Z,51.60
2022-11-08T17:41:14.908Z,51.50
2022-11-08T17:43:43.123Z,51.70
2022-11-08T17:46:11.121Z,51.90
2022-11-08T17:48:38.649Z,51.90
2022-11-08T17:51:05.544Z,52.20
2022-11-08T17:53:34.104Z,52.60
2022-11-08T17:56:04.270Z,52.20
2022-11-08T17:58:33.782Z,52.20
2022-11-08T18:01:03.179Z,52.50
2022-11-08T18:03:30.017Z,52.30
2022-11-08T18:06:00.842Z,52.40
2022-11-08T18:08:30.156Z,52.00
2022-11-08T18:10:57.285Z,52.00
2022-11-08T18:13:25.702Z,51.70
2022-11-08T18:15:52.535Z,51.70
2022-11-08T18:18:19.774Z,52.20
2022-11-08T18:20:53.589Z,52.20
2022-11-08T18:23:20.904Z,52.30
2022-11-08T18:25:49.490Z,52.30
2022-11-08T18:28:17.127Z,52.50
2022-11-08T18:30:47.662Z,52.30
2022-11-08T18:33:15.534Z,53.30
2022-11-08T18:35:43.554Z,52.50
2022-11-08T18:38:11.966Z,52.90
2022-11-08T18:40:39.018Z,53.10
2022-11-08T18:43:06.960Z,52.40
2022-11-08T18:45:33.603Z,52.90
2022-11-08T18:48:00.290Z,52.90
2022-11-08T18:50:27.003Z,53.10
2022-11-08T18:53:07.120Z,53.20
2022-11-08T18:55:34.292Z,53.00
2022-11-08T18:58:01.526Z,53.40
2022-11-08T19:00:28.164Z,53.60
2022-11-08T19:02:55.022Z,53.50
2022-11-08T19:05:21.684Z,53.20
2022-11-08T19:07:48.286Z,53.70
2022-11-08T19:10:15.029Z,53.60
2022-11-08T19:12:41.602Z,53.70
2022-11-08T19:15:08.857Z,53.50
2022-11-08T19:17:36.342Z,53.60
2022-11-08T19:20:04.195Z,53.80
2022-11-08T19:22:30.865Z,53.80
2022-11-08T19:24:57.515Z,53.70
2022-11-08T19:27:24.211Z,53.90
2022-11-08T19:29:50.947Z,53.80
2022-11-08T19:32:17.668Z,54.20
2022-11-08T19:34:46.927Z,54.20
2022-11-08T19:37:13.647Z,54.50
2022-11-08T19:39:40.418Z,54.60
2022-11-08T19:42:07.192Z,54.80
2022-11-08T19:44:33.901Z,55.00
2022-11-08T19:47:00.730Z,54.60
2022-11-08T19:49:28.696Z,54.60
2022-11-08T19:51:55.488Z,54.40
2022-11-08T19:54:22.266Z,54.20
2022-11-08T19:57:05.926Z,54.10
2022-11-08T19:59:33.242Z,54.60
2022-11-08T20:02:00.190Z,54.70
2022-11-08T20:04:27.096Z,54.90
2022-11-08T20:06:53.977Z,55.00
2022-11-08T20:09:21.332Z,55.20
2022-11-08T20:11:50.278Z,54.90
2022-11-08T20:14:17.049Z,55.00
2022-11-08T20:16:47.847Z,55.30
2022-11-08T20:19:17.936Z,54.90
2022-11-08T20:21:46.198Z,54.80
2022-11-08T20:24:13.765Z,54.90
2022-11-08T20:26:41.747Z,54.90
2022-11-08T20:29:08.544Z,55.30
2022-11-08T20:31:35.827Z,55.10
2022-11-08T20:34:06.046Z,55.70
2022-11-08T20:36:35.264Z,55.60
2022-11-08T20:39:07.057Z,55.40
2022-11-08T20:41:36.840Z,55.20
2022-11-08T20:44:03.676Z,55.10
2022-11-08T20:46:32.285Z,55.20
2022-11-08T20:49:00.893Z,55.60
2022-11-08T20:51:30.017Z,55.60
2022-11-08T20:53:58.109Z,55.70
2022-11-08T20:56:25.401Z,55.70
2022-11-08T20:58:52.586Z,56.10
2022-11-08T21:01:24.898Z,56.40
2022-11-08T21:03:52.350Z,56.60
2022-11-08T21:06:22.541Z,56.70
2022-11-08T21:09:00.028Z,56.60
2022-11-08T21:11:30.083Z,57.00
2022-11-08T21:13:56.779Z,56.70
2022-11-08T21:16:38.213Z,57.00
2022-11-08T21:19:09.998Z,57.10
2022-11-08T21:21:37.245Z,57.00
2022-11-08T21:24:04.088Z,57.30
2022-11-08T21:26:36.232Z,57.70
2022-11-08T21:29:04.361Z,57.80
2022-11-08T21:31:31.217Z,57.50
2022-11-08T21:33:58.061Z,57.60
2022-11-08T21:36:26.836Z,57.50
2022-11-08T21:38:56.528Z,57.60
2022-11-08T21:41:23.184Z,58.00
2022-11-08T21:43:49.872Z,58.00
2022-11-08T21:46:18.105Z,57.70
2022-11-08T21:48:45.135Z,58.00
2022-11-08T21:51:12.197Z,57.90
2022-11-08T21:53:49.274Z,58.10
2022-11-08T21:56:20.623Z,57.90
2022-11-08T21:58:47.274Z,58.00
2022-11-08T22:01:14.021Z,58.00
2022-11-08T22:03:40.747Z,58.10
2022-11-08T22:06:07.847Z,57.60
2022-11-08T22:08:34.476Z,57.70
2022-11-08T22:11:01.175Z,57.30
2022-11-08T22:13:27.968Z,56.50
2022-11-08T22:15:54.820Z,56.40
2022-11-08T22:18:31.043Z,56.50
2022-11-08T22:21:26.876Z,55.80
2022-11-08T22:23:53.533Z,55.60
2022-11-08T22:26:20.398Z,55.90
2022-11-08T22:28:47.252Z,55.40
2022-11-08T22:31:14.128Z,54.90
2022-11-08T22:33:40.798Z,54.50
2022-11-08T22:36:07.745Z,53.60
2022-11-08T22:38:34.359Z,53.50
2022-11-08T22:41:01.006Z,52.80
2022-11-08T22:43:27.656Z,51.60
2022-11-08T22:45:54.293Z,50.50
2022-11-08T22:48:22.671Z,50.30
2022-11-08T22:50:49.434Z,50.00
2022-11-08T22:53:16.387Z,49.40
2022-11-08T22:55:45.081Z,49.00
2022-11-08T22:58:12.510Z,49.10
2022-11-08T23:00:39.206Z,49.20
2022-11-08T23:03:05.924Z,49.20
2022-11-08T23:05:32.610Z,49.10
2022-11-08T23:07:59.278Z,49.60
2022-11-08T23:10:25.997Z,49.70
2022-11-08T23:13:11.490Z,50.70
2022-11-08T23:15:56.968Z,51.20
2022-11-08T23:18:24.748Z,51.60
2022-11-08T23:21:13.583Z,51.90
2022-11-08T23:23:58.939Z,53.40
2022-11-08T23:26:44.318Z,52.40
2022-11-08T23:29:30.271Z,53.10
2022-11-08T23:31:57.114Z,53.30
2022-11-08T23:34:23.751Z,53.80
2022-11-08T23:36:50.389Z,53.70
2022-11-08T23:39:17.018Z,53.90
2022-11-08T23:42:02.474Z,54.30
2022-11-08T23:44:29.144Z,54.50
2022-11-08T23:46:58.546Z,54.90
2022-11-08T23:49:25.651Z,55.70
2022-11-08T23:51:52.740Z,55.70
2022-11-08T23:54:19.372Z,55.80
2022-11-08T23:56:46.607Z,56.30
2022-11-08T23:59:18.857Z,56.80
